Qubra — 9HA3881 — position and weather

sailwx.info

Track history (hours):
 
Tides and Currents Weather Stations Pressure Air Temp Water Temp Dewpoint Dewpoint Depression Visibility Wind Speed Wind Dir Waves Ship Positions

Qubra

Last reported at 2017-Nov-20 00:28 UTC. Time now 2017-Nov-21 10:18 UTC.
Position N 45°38' E 013°45'.

Length 193 m; draft 6.2 m.

Type: Ship (hazmat cat A). MMSI: 256305000.

Date/timePositionNaut miles runAvg speedWind from/ knotsBaromVisibWave heightAir tempDewpointWater temp
2017-Nov-20 00:28N 45°38' E 013°45'0 0.0
2017-Nov-20 00:00N 45°38' E 013°45'0 0.0
2017-Nov-19 23:30N 45°38' E 013°45'0 0.0
2017-Nov-19 23:00N 45°38' E 013°45'0 0.0
2017-Nov-19 22:27N 45°38' E 013°45'0 0.0
2017-Nov-19 21:59N 45°38' E 013°45'0 0.0
2017-Nov-19 21:30N 45°38' E 013°45'0 0.0
2017-Nov-19 20:59N 45°38' E 013°45'0 0.0
2017-Nov-19 20:29N 45°38' E 013°45'0 0.0
2017-Nov-19 19:59N 45°38' E 013°45'0 0.0
2017-Nov-19 19:26N 45°38' E 013°45'0 0.0
2017-Nov-19 18:56N 45°38' E 013°45'0 0.0
2017-Nov-19 18:29N 45°38' E 013°45'0 0.0
2017-Nov-19 17:59N 45°38' E 013°45'0 0.0
2017-Nov-19 17:29N 45°38' E 013°45'0 0.0
2017-Nov-19 16:59N 45°38' E 013°45'0 0.0
2017-Nov-19 16:29N 45°38' E 013°45'0 0.0
2017-Nov-19 15:56N 45°38' E 013°45'0 0.0
2017-Nov-19 15:29N 45°38' E 013°45'0 0.0
2017-Nov-19 14:56N 45°38' E 013°45'0 0.0
2017-Nov-19 14:28N 45°38' E 013°45'0 0.0
2017-Nov-19 14:00N 45°38' E 013°45'0 0.0
2017-Nov-19 13:30N 45°38' E 013°45'0 0.0
2017-Nov-19 13:00N 45°38' E 013°45'0 0.0
2017-Nov-19 12:30N 45°38' E 013°45'0 0.0
2017-Nov-19 12:00N 45°38' E 013°45'0 0.0
2017-Nov-19 11:25N 45°38' E 013°45'0 0.0
2017-Nov-19 10:49N 45°38' E 013°45'0 0.0
2017-Nov-19 10:27N 45°38' E 013°45'0 0.0
2017-Nov-19 09:53N 45°38' E 013°45'0 0.0
2017-Nov-19 09:31N 45°38' E 013°45'0 0.0
2017-Nov-19 09:00N 45°38' E 013°45'0 0.0
2017-Nov-19 08:28N 45°38' E 013°45'0 0.0
2017-Nov-19 07:58N 45°38' E 013°45'0 0.2
2017-Nov-19 07:30N 45°38' E 013°45'2 4.8
2017-Nov-19 07:01N 45°39' E 013°42'816.0
2017-Nov-19 06:30N 45°35' E 013°32'1019.4
2017-Nov-19 06:00N 45°29' E 013°21'918.7
2017-Nov-19 05:30N 45°21' E 013°13'1019.9
2017-Nov-19 05:00N 45°12' E 013°17'1020.1
2017-Nov-19 04:30N 45°02' E 013°21'1019.6
2017-Nov-19 04:00N 44°54' E 013°28'1019.7
2017-Nov-19 03:30N 44°45' E 013°35'1019.7
2017-Nov-19 03:00N 44°37' E 013°42'1020.0
2017-Nov-19 02:30N 44°28' E 013°49'1019.9
2017-Nov-19 02:00N 44°20' E 013°57'  
2017-Nov-16 18:45N 40°45' E 028°58'518.6
2017-Nov-16 18:29N 40°45' E 029°05'612.9
2017-Nov-16 18:00N 40°45' E 029°13'0 0.5
2017-Nov-16 17:30N 40°45' E 029°13'2 4.0
2017-Nov-16 17:01N 40°45' E 029°16'611.6
2017-Nov-16 16:29N 40°44' E 029°24'3 0.8
2017-Nov-16 12:53N 40°41' E 029°26'0 0.0
2017-Nov-16 12:23N 40°41' E 029°26'0 0.0
2017-Nov-16 11:53N 40°41' E 029°26'0 0.0
2017-Nov-16 03:23N 40°41' E 029°26'0 0.7
2017-Nov-16 03:01N 40°42' E 029°26'3 6.8
2017-Nov-16 02:30N 40°43' E 029°22'4 7.8
2017-Nov-16 02:00N 40°43' E 029°17'1219.0
2017-Nov-16 01:24N 40°43' E 029°01'26716.5
2017-Nov-15 09:13N 37°55' E 024°33'519.3
2017-Nov-15 08:58N 37°53' E 024°28'919.3
2017-Nov-15 08:30N 37°50' E 024°17'  
2017-Nov-13 01:59N 45°38' E 013°45'0 0.0
2017-Nov-13 01:29N 45°38' E 013°45'0 0.0
2017-Nov-13 00:59N 45°38' E 013°45'0 0.0
2017-Nov-13 00:26N 45°38' E 013°45'0 0.0
2017-Nov-12 23:54N 45°38' E 013°45'0 0.0
2017-Nov-12 23:27N 45°38' E 013°45'0 0.0
2017-Nov-12 22:51N 45°38' E 013°45'0 0.0
2017-Nov-12 22:27N 45°38' E 013°45'0 0.0
2017-Nov-12 22:00N 45°38' E 013°45'0 0.0
2017-Nov-12 21:30N 45°38' E 013°45'0 0.0
2017-Nov-12 21:00N 45°38' E 013°45'0 0.0
2017-Nov-12 20:30N 45°38' E 013°45'0 0.0
2017-Nov-12 20:00N 45°38' E 013°45'0 0.0
2017-Nov-12 19:30N 45°38' E 013°45'0 0.0
2017-Nov-12 19:00N 45°38' E 013°45'0 0.0
2017-Nov-12 18:30N 45°38' E 013°45'0 0.0
2017-Nov-12 18:00N 45°38' E 013°45'0 0.0
2017-Nov-12 17:30N 45°38' E 013°45'0 0.0
2017-Nov-12 17:00N 45°38' E 013°45'0 0.0
2017-Nov-12 16:30N 45°38' E 013°45'0 0.0
2017-Nov-12 15:57N 45°38' E 013°45'0 0.0
2017-Nov-12 15:24N 45°38' E 013°45'0 0.0
2017-Nov-12 15:00N 45°38' E 013°45'0 0.0
2017-Nov-12 14:30N 45°38' E 013°45'0 0.0
2017-Nov-12 14:00N 45°38' E 013°45'0 0.0
2017-Nov-12 13:30N 45°38' E 013°45'0 0.0
2017-Nov-12 12:54N 45°38' E 013°45'0 0.0
2017-Nov-12 12:30N 45°38' E 013°45'0 0.0
2017-Nov-12 11:59N 45°38' E 013°45'0 0.0
2017-Nov-12 11:27N 45°38' E 013°45'0 0.0
2017-Nov-12 10:56N 45°38' E 013°45'0 0.0
2017-Nov-12 10:27N 45°38' E 013°45'0 0.0
2017-Nov-12 10:00N 45°38' E 013°45'0 0.0
2017-Nov-12 09:29N 45°38' E 013°45'0 0.0
2017-Nov-12 08:53N 45°38' E 013°45'0 0.0
2017-Nov-12 08:25N 45°38' E 013°45'0 0.0
2017-Nov-12 08:00N 45°38' E 013°45'0 0.0
2017-Nov-12 07:29N 45°38' E 013°45'0 0.0
2017-Nov-12 06:56N 45°38' E 013°45'0 0.0
2017-Nov-12 06:29N 45°38' E 013°45'0 0.0
2017-Nov-12 05:55N 45°38' E 013°45'0 0.2
2017-Nov-12 05:31N 45°38' E 013°45'2 4.2
2017-Nov-12 05:01N 45°39' E 013°42'714.3
2017-Nov-12 04:30N 45°36' E 013°33'815.8
2017-Nov-12 04:00N 45°31' E 013°24'816.2
2017-Nov-12 03:30N 45°25' E 013°16'714.4
2017-Nov-12 03:00N 45°18' E 013°14'816.3
2017-Nov-12 02:30N 45°10' E 013°17'816.4
2017-Nov-12 02:00N 45°02' E 013°19'816.3
2017-Nov-12 01:30N 44°55' E 013°26'816.6
2017-Nov-12 01:00N 44°48' E 013°32'917.3
2017-Nov-12 00:30N 44°41' E 013°39'917.5
2017-Nov-12 00:00N 44°34' E 013°45'917.5
2017-Nov-11 23:30N 44°26' E 013°52'917.3
2017-Nov-11 23:00N 44°19' E 013°58'917.6
2017-Nov-11 22:30N 44°12' E 014°05'1017.6
2017-Nov-11 21:57N 44°04' E 014°12'60416.0
2017-Nov-10 08:11N 37°07' E 023°48'2718.2
2017-Nov-10 06:42N 37°30' E 024°07'518.6
2017-Nov-10 06:26N 37°34' E 024°10'1118.7
2017-Nov-10 05:50N 37°43' E 024°17'  
Track history (hours):
 
Tides and Currents Weather Stations Pressure Air Temp Water Temp Dewpoint Dewpoint Depression Visibility Wind Speed Wind Dir Waves Ship Positions

Qubra

Last reported at 2017-Nov-20 00:28 UTC. Time now 2017-Nov-21 10:18 UTC.
Position N 45°38' E 013°45'.

Length 193 m; draft 6.2 m.

Type: Ship (hazmat cat A). MMSI: 256305000.

Date/timePositionNaut miles runAvg speedWind from/ knotsBaromVisibWave heightAir tempDewpointWater temp
2017-Nov-20 00:28N 45°38' E 013°45'0 0.0
2017-Nov-20 00:00N 45°38' E 013°45'0 0.0
2017-Nov-19 23:30N 45°38' E 013°45'0 0.0
2017-Nov-19 23:00N 45°38' E 013°45'0 0.0
2017-Nov-19 22:27N 45°38' E 013°45'0 0.0
2017-Nov-19 21:59N 45°38' E 013°45'0 0.0
2017-Nov-19 21:30N 45°38' E 013°45'0 0.0
2017-Nov-19 20:59N 45°38' E 013°45'0 0.0
2017-Nov-19 20:29N 45°38' E 013°45'0 0.0
2017-Nov-19 19:59N 45°38' E 013°45'0 0.0
2017-Nov-19 19:26N 45°38' E 013°45'0 0.0
2017-Nov-19 18:56N 45°38' E 013°45'0 0.0
2017-Nov-19 18:29N 45°38' E 013°45'0 0.0
2017-Nov-19 17:59N 45°38' E 013°45'0 0.0
2017-Nov-19 17:29N 45°38' E 013°45'0 0.0
2017-Nov-19 16:59N 45°38' E 013°45'0 0.0
2017-Nov-19 16:29N 45°38' E 013°45'0 0.0
2017-Nov-19 15:56N 45°38' E 013°45'0 0.0
2017-Nov-19 15:29N 45°38' E 013°45'0 0.0
2017-Nov-19 14:56N 45°38' E 013°45'0 0.0
2017-Nov-19 14:28N 45°38' E 013°45'0 0.0
2017-Nov-19 14:00N 45°38' E 013°45'0 0.0
2017-Nov-19 13:30N 45°38' E 013°45'0 0.0
2017-Nov-19 13:00N 45°38' E 013°45'0 0.0
2017-Nov-19 12:30N 45°38' E 013°45'0 0.0
2017-Nov-19 12:00N 45°38' E 013°45'0 0.0
2017-Nov-19 11:25N 45°38' E 013°45'0 0.0
2017-Nov-19 10:49N 45°38' E 013°45'0 0.0
2017-Nov-19 10:27N 45°38' E 013°45'0 0.0
2017-Nov-19 09:53N 45°38' E 013°45'0 0.0
2017-Nov-19 09:31N 45°38' E 013°45'0 0.0
2017-Nov-19 09:00N 45°38' E 013°45'0 0.0
2017-Nov-19 08:28N 45°38' E 013°45'0 0.0
2017-Nov-19 07:58N 45°38' E 013°45'0 0.2
2017-Nov-19 07:30N 45°38' E 013°45'2 4.8
2017-Nov-19 07:01N 45°39' E 013°42'816.0
2017-Nov-19 06:30N 45°35' E 013°32'1019.4
2017-Nov-19 06:00N 45°29' E 013°21'918.7
2017-Nov-19 05:30N 45°21' E 013°13'1019.9
2017-Nov-19 05:00N 45°12' E 013°17'1020.1
2017-Nov-19 04:30N 45°02' E 013°21'1019.6
2017-Nov-19 04:00N 44°54' E 013°28'1019.7
2017-Nov-19 03:30N 44°45' E 013°35'1019.7
2017-Nov-19 03:00N 44°37' E 013°42'1020.0
2017-Nov-19 02:30N 44°28' E 013°49'1019.9
2017-Nov-19 02:00N 44°20' E 013°57'  
2017-Nov-16 18:45N 40°45' E 028°58'518.6
2017-Nov-16 18:29N 40°45' E 029°05'612.9
2017-Nov-16 18:00N 40°45' E 029°13'0 0.5
2017-Nov-16 17:30N 40°45' E 029°13'2 4.0
2017-Nov-16 17:01N 40°45' E 029°16'611.6
2017-Nov-16 16:29N 40°44' E 029°24'3 0.8
2017-Nov-16 12:53N 40°41' E 029°26'0 0.0
2017-Nov-16 12:23N 40°41' E 029°26'0 0.0
2017-Nov-16 11:53N 40°41' E 029°26'0 0.0
2017-Nov-16 03:23N 40°41' E 029°26'0 0.7
2017-Nov-16 03:01N 40°42' E 029°26'3 6.8
2017-Nov-16 02:30N 40°43' E 029°22'4 7.8
2017-Nov-16 02:00N 40°43' E 029°17'1219.0
2017-Nov-16 01:24N 40°43' E 029°01'26716.5
2017-Nov-15 09:13N 37°55' E 024°33'519.3
2017-Nov-15 08:58N 37°53' E 024°28'919.3
2017-Nov-15 08:30N 37°50' E 024°17'  
2017-Nov-13 01:59N 45°38' E 013°45'0 0.0
2017-Nov-13 01:29N 45°38' E 013°45'0 0.0
2017-Nov-13 00:59N 45°38' E 013°45'0 0.0
2017-Nov-13 00:26N 45°38' E 013°45'0 0.0
2017-Nov-12 23:54N 45°38' E 013°45'0 0.0
2017-Nov-12 23:27N 45°38' E 013°45'0 0.0
2017-Nov-12 22:51N 45°38' E 013°45'0 0.0
2017-Nov-12 22:27N 45°38' E 013°45'0 0.0
2017-Nov-12 22:00N 45°38' E 013°45'0 0.0
2017-Nov-12 21:30N 45°38' E 013°45'0 0.0
2017-Nov-12 21:00N 45°38' E 013°45'0 0.0
2017-Nov-12 20:30N 45°38' E 013°45'0 0.0
2017-Nov-12 20:00N 45°38' E 013°45'0 0.0
2017-Nov-12 19:30N 45°38' E 013°45'0 0.0
2017-Nov-12 19:00N 45°38' E 013°45'0 0.0
2017-Nov-12 18:30N 45°38' E 013°45'0 0.0
2017-Nov-12 18:00N 45°38' E 013°45'0 0.0
2017-Nov-12 17:30N 45°38' E 013°45'0 0.0
2017-Nov-12 17:00N 45°38' E 013°45'0 0.0
2017-Nov-12 16:30N 45°38' E 013°45'0 0.0
2017-Nov-12 15:57N 45°38' E 013°45'0 0.0
2017-Nov-12 15:24N 45°38' E 013°45'0 0.0
2017-Nov-12 15:00N 45°38' E 013°45'0 0.0
2017-Nov-12 14:30N 45°38' E 013°45'0 0.0
2017-Nov-12 14:00N 45°38' E 013°45'0 0.0
2017-Nov-12 13:30N 45°38' E 013°45'0 0.0
2017-Nov-12 12:54N 45°38' E 013°45'0 0.0
2017-Nov-12 12:30N 45°38' E 013°45'0 0.0
2017-Nov-12 11:59N 45°38' E 013°45'0 0.0
2017-Nov-12 11:27N 45°38' E 013°45'0 0.0
2017-Nov-12 10:56N 45°38' E 013°45'0 0.0
2017-Nov-12 10:27N 45°38' E 013°45'0 0.0
2017-Nov-12 10:00N 45°38' E 013°45'0 0.0
2017-Nov-12 09:29N 45°38' E 013°45'0 0.0
2017-Nov-12 08:53N 45°38' E 013°45'0 0.0
2017-Nov-12 08:25N 45°38' E 013°45'0 0.0
2017-Nov-12 08:00N 45°38' E 013°45'0 0.0
2017-Nov-12 07:29N 45°38' E 013°45'0 0.0
2017-Nov-12 06:56N 45°38' E 013°45'0 0.0
2017-Nov-12 06:29N 45°38' E 013°45'0 0.0
2017-Nov-12 05:55N 45°38' E 013°45'0 0.2
2017-Nov-12 05:31N 45°38' E 013°45'2 4.2
2017-Nov-12 05:01N 45°39' E 013°42'714.3
2017-Nov-12 04:30N 45°36' E 013°33'815.8
2017-Nov-12 04:00N 45°31' E 013°24'816.2
2017-Nov-12 03:30N 45°25' E 013°16'714.4
2017-Nov-12 03:00N 45°18' E 013°14'816.3
2017-Nov-12 02:30N 45°10' E 013°17'816.4
2017-Nov-12 02:00N 45°02' E 013°19'816.3
2017-Nov-12 01:30N 44°55' E 013°26'816.6
2017-Nov-12 01:00N 44°48' E 013°32'917.3
2017-Nov-12 00:30N 44°41' E 013°39'917.5
2017-Nov-12 00:00N 44°34' E 013°45'917.5
2017-Nov-11 23:30N 44°26' E 013°52'917.3
2017-Nov-11 23:00N 44°19' E 013°58'917.6
2017-Nov-11 22:30N 44°12' E 014°05'1017.6
2017-Nov-11 21:57N 44°04' E 014°12'60416.0
2017-Nov-10 08:11N 37°07' E 023°48'2718.2
2017-Nov-10 06:42N 37°30' E 024°07'518.6
2017-Nov-10 06:26N 37°34' E 024°10'1118.7
2017-Nov-10 05:50N 37°43' E 024°17'  

Dump ship's entire track history